sensor_id;sensor_type;location;lat;lon;timestamp;pressure;altitude;pressure_sealevel;temperature;humidity
19553;BME280;9420;50.876;7.012;2022-09-29T00:02:11;99573.00;;;17.24;100.00
19553;BME280;9420;50.876;7.012;2022-09-29T00:04:39;99563.69;;;17.18;100.00
19553;BME280;9420;50.876;7.012;2022-09-29T00:07:06;99567.03;;;17.68;100.00
19553;BME280;9420;50.876;7.012;2022-09-29T00:09:33;99563.78;;;17.40;100.00
19553;BME280;9420;50.876;7.012;2022-09-29T00:12:00;99576.31;;;17.04;100.00
19553;BME280;9420;50.876;7.012;2022-09-29T00:14:27;99565.81;;;17.61;100.00
19553;BME280;9420;50.876;7.012;2022-09-29T00:16:54;99571.56;;;16.96;100.00
19553;BME280;9420;50.876;7.012;2022-09-29T00:19:21;99576.38;;;16.91;100.00
19553;BME280;9420;50.876;7.012;2022-09-29T00:21:50;99575.69;;;17.00;100.00
19553;BME280;9420;50.876;7.012;2022-09-29T00:24:17;99578.09;;;16.92;100.00
19553;BME280;9420;50.876;7.012;2022-09-29T00:26:44;99569.59;;;16.87;100.00
19553;BME280;9420;50.876;7.012;2022-09-29T00:29:12;99566.25;;;16.73;100.00
19553;BME280;9420;50.876;7.012;2022-09-29T00:31:39;99570.94;;;16.69;100.00
19553;BME280;9420;50.876;7.012;2022-09-29T00:34:06;99573.63;;;16.56;100.00
19553;BME280;9420;50.876;7.012;2022-09-29T00:36:33;99572.25;;;16.51;100.00
19553;BME280;9420;50.876;7.012;2022-09-29T00:39:01;99560.56;;;16.41;100.00
19553;BME280;9420;50.876;7.012;2022-09-29T00:41:32;99558.00;;;16.39;100.00
19553;BME280;9420;50.876;7.012;2022-09-29T00:44:01;99557.69;;;16.44;100.00
19553;BME280;9420;50.876;7.012;2022-09-29T00:46:37;99563.34;;;16.52;100.00
19553;BME280;9420;50.876;7.012;2022-09-29T00:49:14;99566.16;;;16.49;100.00
19553;BME280;9420;50.876;7.012;2022-09-29T00:51:50;99566.72;;;16.54;100.00
19553;BME280;9420;50.876;7.012;2022-09-29T00:54:21;99571.53;;;16.24;100.00
19553;BME280;9420;50.876;7.012;2022-09-29T00:56:52;99566.16;;;16.13;100.00
19553;BME280;9420;50.876;7.012;2022-09-29T00:59:31;99569.09;;;16.21;100.00
19553;BME280;9420;50.876;7.012;2022-09-29T01:01:59;99570.78;;;16.22;100.00
19553;BME280;9420;50.876;7.012;2022-09-29T01:04:26;99571.72;;;16.46;100.00
19553;BME280;9420;50.876;7.012;2022-09-29T01:06:56;99577.13;;;16.32;100.00
19553;BME280;9420;50.876;7.012;2022-09-29T01:09:30;99569.59;;;16.26;100.00
19553;BME280;9420;50.876;7.012;2022-09-29T01:11:59;99578.88;;;16.08;100.00
19553;BME280;9420;50.876;7.012;2022-09-29T01:14:29;99567.63;;;16.17;100.00
19553;BME280;9420;50.876;7.012;2022-09-29T01:16:57;99569.31;;;16.18;100.00
19553;BME280;9420;50.876;7.012;2022-09-29T01:19:37;99579.75;;;16.08;100.00
19553;BME280;9420;50.876;7.012;2022-09-29T01:22:22;99577.50;;;15.89;100.00
19553;BME280;9420;50.876;7.012;2022-09-29T01:25:16;99575.59;;;15.92;100.00
19553;BME280;9420;50.876;7.012;2022-09-29T01:31:23;99579.50;;;15.73;100.00
19553;BME280;9420;50.876;7.012;2022-09-29T01:34:01;99576.84;;;15.86;100.00
19553;BME280;9420;50.876;7.012;2022-09-29T01:36:42;99576.84;;;15.73;100.00
19553;BME280;9420;50.876;7.012;2022-09-29T01:39:24;99586.28;;;15.77;100.00
19553;BME280;9420;50.876;7.012;2022-09-29T01:41:57;99585.78;;;15.72;100.00
19553;BME280;9420;50.876;7.012;2022-09-29T01:44:31;99590.44;;;15.81;100.00
19553;BME280;9420;50.876;7.012;2022-09-29T01:47:07;99599.06;;;15.98;100.00
19553;BME280;9420;50.876;7.012;2022-09-29T01:49:41;99595.66;;;15.70;100.00
19553;BME280;9420;50.876;7.012;2022-09-29T01:52:13;99589.31;;;16.11;100.00
19553;BME280;9420;50.876;7.012;2022-09-29T01:54:47;99589.34;;;16.34;100.00
19553;BME280;9420;50.876;7.012;2022-09-29T01:57:23;99588.88;;;16.17;100.00
19553;BME280;9420;50.876;7.012;2022-09-29T02:00:00;99592.59;;;16.02;100.00
19553;BME280;9420;50.876;7.012;2022-09-29T02:02:37;99592.47;;;16.03;100.00
19553;BME280;9420;50.876;7.012;2022-09-29T02:05:11;99592.47;;;16.03;100.00
19553;BME280;9420;50.876;7.012;2022-09-29T02:07:43;99594.38;;;15.88;100.00
19553;BME280;9420;50.876;7.012;2022-09-29T02:10:18;99580.53;;;16.21;100.00
19553;BME280;9420;50.876;7.012;2022-09-29T02:12:49;99581.22;;;16.00;100.00
19553;BME280;9420;50.876;7.012;2022-09-29T02:15:21;99589.38;;;15.97;100.00
19553;BME280;9420;50.876;7.012;2022-09-29T02:17:54;99592.47;;;15.90;100.00
19553;BME280;9420;50.876;7.012;2022-09-29T02:20:24;99592.88;;;15.72;100.00
19553;BME280;9420;50.876;7.012;2022-09-29T02:22:51;99600.63;;;15.62;100.00
19553;BME280;9420;50.876;7.012;2022-09-29T02:25:19;99595.44;;;15.73;100.00
19553;BME280;9420;50.876;7.012;2022-09-29T02:27:47;99607.28;;;15.55;100.00
19553;BME280;9420;50.876;7.012;2022-09-29T02:30:16;99601.56;;;15.61;100.00
19553;BME280;9420;50.876;7.012;2022-09-29T02:32:45;99598.28;;;15.31;100.00
19553;BME280;9420;50.876;7.012;2022-09-29T02:35:14;99613.47;;;15.56;100.00
19553;BME280;9420;50.876;7.012;2022-09-29T02:38:03;99615.13;;;15.44;100.00
19553;BME280;9420;50.876;7.012;2022-09-29T02:40:43;99605.53;;;15.42;100.00
19553;BME280;9420;50.876;7.012;2022-09-29T02:43:42;99607.94;;;15.32;100.00
19553;BME280;9420;50.876;7.012;2022-09-29T02:46:34;99602.97;;;15.40;100.00
19553;BME280;9420;50.876;7.012;2022-09-29T02:49:34;99604.13;;;15.36;100.00
19553;BME280;9420;50.876;7.012;2022-09-29T02:52:20;99601.91;;;15.30;100.00
19553;BME280;9420;50.876;7.012;2022-09-29T02:55:00;99603.34;;;15.22;100.00
19553;BME280;9420;50.876;7.012;2022-09-29T02:57:42;99607.13;;;15.05;100.00
19553;BME280;9420;50.876;7.012;2022-09-29T03:00:15;99600.72;;;14.95;100.00
19553;BME280;9420;50.876;7.012;2022-09-29T03:02:43;99596.91;;;14.99;100.00
19553;BME280;9420;50.876;7.012;2022-09-29T03:05:15;99597.16;;;15.08;100.00
19553;BME280;9420;50.876;7.012;2022-09-29T03:07:45;99605.56;;;15.15;100.00
19553;BME280;9420;50.876;7.012;2022-09-29T03:10:15;99606.53;;;15.14;100.00
19553;BME280;9420;50.876;7.012;2022-09-29T03:12:43;99598.56;;;15.14;100.00
19553;BME280;9420;50.876;7.012;2022-09-29T03:15:11;99601.00;;;15.17;100.00
19553;BME280;9420;50.876;7.012;2022-09-29T03:17:39;99600.91;;;14.92;100.00
19553;BME280;9420;50.876;7.012;2022-09-29T03:20:08;99606.25;;;14.78;100.00
19553;BME280;9420;50.876;7.012;2022-09-29T03:22:36;99601.25;;;14.73;100.00
19553;BME280;9420;50.876;7.012;2022-09-29T03:25:06;99605.22;;;14.80;100.00
19553;BME280;9420;50.876;7.012;2022-09-29T03:27:33;99608.38;;;14.59;100.00
19553;BME280;9420;50.876;7.012;2022-09-29T03:30:01;99600.13;;;15.82;100.00
19553;BME280;9420;50.876;7.012;2022-09-29T03:32:28;99603.66;;;15.44;100.00
19553;BME280;9420;50.876;7.012;2022-09-29T03:34:56;99608.59;;;14.56;100.00
19553;BME280;9420;50.876;7.012;2022-09-29T03:37:23;99601.75;;;14.52;100.00
19553;BME280;9420;50.876;7.012;2022-09-29T03:39:50;99604.78;;;14.60;100.00
19553;BME280;9420;50.876;7.012;2022-09-29T03:42:18;99604.97;;;14.57;100.00
19553;BME280;9420;50.876;7.012;2022-09-29T03:44:48;99604.41;;;14.38;100.00
19553;BME280;9420;50.876;7.012;2022-09-29T03:47:15;99609.13;;;14.18;100.00
19553;BME280;9420;50.876;7.012;2022-09-29T03:49:43;99614.03;;;14.24;100.00
19553;BME280;9420;50.876;7.012;2022-09-29T03:52:10;99613.88;;;14.42;100.00
19553;BME280;9420;50.876;7.012;2022-09-29T03:54:37;99604.41;;;14.38;100.00
19553;BME280;9420;50.876;7.012;2022-09-29T03:57:04;99612.41;;;14.64;100.00
19553;BME280;9420;50.876;7.012;2022-09-29T03:59:32;99617.47;;;14.41;100.00
19553;BME280;9420;50.876;7.012;2022-09-29T04:01:59;99622.41;;;14.32;100.00
19553;BME280;9420;50.876;7.012;2022-09-29T04:04:27;99616.88;;;14.64;100.00
19553;BME280;9420;50.876;7.012;2022-09-29T04:06:54;99623.50;;;14.14;100.00
19553;BME280;9420;50.876;7.012;2022-09-29T04:09:21;99630.66;;;13.84;100.00
19553;BME280;9420;50.876;7.012;2022-09-29T04:11:48;99631.66;;;13.68;100.00
19553;BME280;9420;50.876;7.012;2022-09-29T04:14:15;99634.06;;;13.86;100.00
19553;BME280;9420;50.876;7.012;2022-09-29T04:16:43;99633.69;;;13.92;100.00
19553;BME280;9420;50.876;7.012;2022-09-29T04:19:10;99630.88;;;14.09;100.00
19553;BME280;9420;50.876;7.012;2022-09-29T04:21:37;99631.81;;;14.22;100.00
19553;BME280;9420;50.876;7.012;2022-09-29T04:24:04;99629.97;;;15.47;100.00
19553;BME280;9420;50.876;7.012;2022-09-29T04:26:32;99637.31;;;14.19;100.00
19553;BME280;9420;50.876;7.012;2022-09-29T04:28:59;99645.03;;;13.80;100.00
19553;BME280;9420;50.876;7.012;2022-09-29T04:31:26;99650.13;;;13.83;100.00
19553;BME280;9420;50.876;7.012;2022-09-29T04:33:54;99650.34;;;14.08;100.00
19553;BME280;9420;50.876;7.012;2022-09-29T04:36:22;99655.72;;;14.07;100.00
19553;BME280;9420;50.876;7.012;2022-09-29T04:38:49;99656.22;;;14.27;100.00
19553;BME280;9420;50.876;7.012;2022-09-29T04:41:16;99652.38;;;14.47;100.00
19553;BME280;9420;50.876;7.012;2022-09-29T04:43:43;99650.38;;;14.51;100.00
19553;BME280;9420;50.876;7.012;2022-09-29T04:46:12;99653.88;;;14.65;100.00
19553;BME280;9420;50.876;7.012;2022-09-29T04:48:39;99656.59;;;14.78;100.00
19553;BME280;9420;50.876;7.012;2022-09-29T04:51:09;99654.41;;;14.84;100.00
19553;BME280;9420;50.876;7.012;2022-09-29T04:53:36;99656.19;;;14.84;100.00
19553;BME280;9420;50.876;7.012;2022-09-29T04:56:07;99657.53;;;14.91;100.00
19553;BME280;9420;50.876;7.012;2022-09-29T04:58:35;99655.28;;;15.11;100.00
19553;BME280;9420;50.876;7.012;2022-09-29T05:01:07;99649.38;;;15.99;100.00
19553;BME280;9420;50.876;7.012;2022-09-29T05:03:35;99651.84;;;16.15;100.00
19553;BME280;9420;50.876;7.012;2022-09-29T05:06:02;99660.31;;;15.02;100.00
19553;BME280;9420;50.876;7.012;2022-09-29T05:08:31;99665.69;;;14.74;100.00
19553;BME280;9420;50.876;7.012;2022-09-29T05:11:02;99665.72;;;15.00;100.00
19553;BME280;9420;50.876;7.012;2022-09-29T05:13:29;99670.03;;;14.89;100.00
19553;BME280;9420;50.876;7.012;2022-09-29T05:15:56;99664.84;;;15.14;100.00
19553;BME280;9420;50.876;7.012;2022-09-29T05:18:23;99670.25;;;15.39;100.00
19553;BME280;9420;50.876;7.012;2022-09-29T05:20:51;99675.19;;;15.45;100.00
19553;BME280;9420;50.876;7.012;2022-09-29T05:23:19;99681.16;;;15.61;100.00
19553;BME280;9420;50.876;7.012;2022-09-29T05:25:48;99675.63;;;15.38;100.00
19553;BME280;9420;50.876;7.012;2022-09-29T05:28:15;99685.63;;;15.61;100.00
19553;BME280;9420;50.876;7.012;2022-09-29T05:30:42;99679.16;;;15.38;100.00
19553;BME280;9420;50.876;7.012;2022-09-29T05:33:10;99673.06;;;15.50;100.00
19553;BME280;9420;50.876;7.012;2022-09-29T05:35:37;99688.56;;;15.56;100.00
19553;BME280;9420;50.876;7.012;2022-09-29T05:38:04;99681.41;;;15.83;100.00
19553;BME280;9420;50.876;7.012;2022-09-29T05:40:32;99692.25;;;15.27;100.00
19553;BME280;9420;50.876;7.012;2022-09-29T05:43:00;99691.97;;;15.58;100.00
19553;BME280;9420;50.876;7.012;2022-09-29T05:45:28;99688.78;;;15.53;100.00
19553;BME280;9420;50.876;7.012;2022-09-29T05:47:55;99692.88;;;15.71;100.00
19553;BME280;9420;50.876;7.012;2022-09-29T05:50:22;99696.13;;;16.02;100.00
19553;BME280;9420;50.876;7.012;2022-09-29T05:52:49;99696.72;;;15.80;100.00
19553;BME280;9420;50.876;7.012;2022-09-29T05:55:18;99704.56;;;15.81;100.00
19553;BME280;9420;50.876;7.012;2022-09-29T05:57:47;99698.19;;;15.71;100.00
19553;BME280;9420;50.876;7.012;2022-09-29T06:00:16;99700.78;;;15.85;100.00
19553;BME280;9420;50.876;7.012;2022-09-29T06:02:43;99703.06;;;15.77;100.00
19553;BME280;9420;50.876;7.012;2022-09-29T06:05:10;99698.50;;;15.79;100.00
19553;BME280;9420;50.876;7.012;2022-09-29T06:07:37;99700.56;;;15.88;100.00
19553;BME280;9420;50.876;7.012;2022-09-29T06:10:05;99689.75;;;15.92;100.00
19553;BME280;9420;50.876;7.012;2022-09-29T06:12:35;99700.16;;;16.07;100.00
19553;BME280;9420;50.876;7.012;2022-09-29T06:15:04;99696.66;;;16.07;100.00
19553;BME280;9420;50.876;7.012;2022-09-29T06:17:32;99691.47;;;16.68;100.00
19553;BME280;9420;50.876;7.012;2022-09-29T06:20:01;99696.34;;;16.11;100.00
19553;BME280;9420;50.876;7.012;2022-09-29T06:22:28;99695.91;;;16.17;100.00
19553;BME280;9420;50.876;7.012;2022-09-29T06:24:55;99701.63;;;15.99;100.00
19553;BME280;9420;50.876;7.012;2022-09-29T06:27:23;99698.25;;;16.34;100.00
19553;BME280;9420;50.876;7.012;2022-09-29T06:29:50;99704.25;;;16.63;100.00
19553;BME280;9420;50.876;7.012;2022-09-29T06:32:17;99704.66;;;16.57;100.00
19553;BME280;9420;50.876;7.012;2022-09-29T06:34:45;99704.91;;;16.54;100.00
19553;BME280;9420;50.876;7.012;2022-09-29T06:37:30;99709.13;;;16.44;100.00
19553;BME280;9420;50.876;7.012;2022-09-29T06:40:06;99711.13;;;16.40;100.00
19553;BME280;9420;50.876;7.012;2022-09-29T06:42:34;99714.03;;;16.50;100.00
19553;BME280;9420;50.876;7.012;2022-09-29T06:45:02;99709.31;;;16.41;100.00
19553;BME280;9420;50.876;7.012;2022-09-29T06:47:29;99715.84;;;16.49;100.00
19553;BME280;9420;50.876;7.012;2022-09-29T06:49:58;99716.84;;;16.47;100.00
19553;BME280;9420;50.876;7.012;2022-09-29T06:52:27;99718.78;;;16.70;100.00
19553;BME280;9420;50.876;7.012;2022-09-29T06:54:54;99717.19;;;16.80;100.00
19553;BME280;9420;50.876;7.012;2022-09-29T06:57:21;99716.47;;;16.53;100.00
19553;BME280;9420;50.876;7.012;2022-09-29T06:59:48;99719.97;;;16.66;100.00
19553;BME280;9420;50.876;7.012;2022-09-29T07:02:15;99720.19;;;16.76;100.00
19553;BME280;9420;50.876;7.012;2022-09-29T07:04:43;99725.19;;;17.16;100.00
19553;BME280;9420;50.876;7.012;2022-09-29T07:07:14;99723.56;;;16.90;100.00
19553;BME280;9420;50.876;7.012;2022-09-29T07:09:41;99731.22;;;16.69;100.00
19553;BME280;9420;50.876;7.012;2022-09-29T07:12:08;99733.13;;;16.80;100.00
19553;BME280;9420;50.876;7.012;2022-09-29T07:14:36;99731.63;;;17.01;100.00
19553;BME280;9420;50.876;7.012;2022-09-29T07:17:03;99729.88;;;17.25;100.00
19553;BME280;9420;50.876;7.012;2022-09-29T07:19:31;99736.66;;;17.29;100.00
19553;BME280;9420;50.876;7.012;2022-09-29T07:21:58;99735.84;;;17.16;100.00
19553;BME280;9420;50.876;7.012;2022-09-29T07:24:27;99740.13;;;17.42;100.00
19553;BME280;9420;50.876;7.012;2022-09-29T07:26:54;99731.34;;;17.29;100.00
19553;BME280;9420;50.876;7.012;2022-09-29T07:29:21;99740.13;;;17.42;100.00
19553;BME280;9420;50.876;7.012;2022-09-29T07:31:48;99738.28;;;17.19;100.00
19553;BME280;9420;50.876;7.012;2022-09-29T07:34:17;99742.56;;;17.45;100.00
19553;BME280;9420;50.876;7.012;2022-09-29T07:36:44;99740.63;;;17.47;100.00
19553;BME280;9420;50.876;7.012;2022-09-29T07:39:11;99743.44;;;18.28;100.00
19553;BME280;9420;50.876;7.012;2022-09-29T07:41:39;99744.41;;;18.38;100.00
19553;BME280;9420;50.876;7.012;2022-09-29T07:44:07;99738.75;;;17.97;100.00
19553;BME280;9420;50.876;7.012;2022-09-29T07:46:34;99745.28;;;18.04;100.00
19553;BME280;9420;50.876;7.012;2022-09-29T07:49:01;99744.56;;;18.02;100.00
19553;BME280;9420;50.876;7.012;2022-09-29T07:51:30;99750.75;;;18.02;100.00
19553;BME280;9420;50.876;7.012;2022-09-29T07:54:00;99750.81;;;18.70;100.00
19553;BME280;9420;50.876;7.012;2022-09-29T07:56:28;99760.03;;;18.88;100.00
19553;BME280;9420;50.876;7.012;2022-09-29T07:58:57;99753.31;;;18.15;100.00
19553;BME280;9420;50.876;7.012;2022-09-29T08:01:24;99753.31;;;18.15;100.00
19553;BME280;9420;50.876;7.012;2022-09-29T08:03:53;99759.31;;;17.95;100.00
19553;BME280;9420;50.876;7.012;2022-09-29T08:06:25;99764.75;;;17.33;100.00
19553;BME280;9420;50.876;7.012;2022-09-29T08:08:53;99758.34;;;17.96;100.00
19553;BME280;9420;50.876;7.012;2022-09-29T08:11:20;99762.72;;;18.08;100.00
19553;BME280;9420;50.876;7.012;2022-09-29T08:13:50;99758.66;;;18.15;100.00
19553;BME280;9420;50.876;7.012;2022-09-29T08:16:19;99763.53;;;18.56;100.00
19553;BME280;9420;50.876;7.012;2022-09-29T08:18:46;99764.50;;;18.66;100.00
19553;BME280;9420;50.876;7.012;2022-09-29T08:21:15;99773.78;;;18.14;100.00
19553;BME280;9420;50.876;7.012;2022-09-29T08:23:43;99776.47;;;18.49;100.00
19553;BME280;9420;50.876;7.012;2022-09-29T08:26:12;99775.53;;;18.72;100.00
19553;BME280;9420;50.876;7.012;2022-09-29T08:28:41;99774.31;;;18.87;99.65
19553;BME280;9420;50.876;7.012;2022-09-29T08:31:10;99781.38;;;18.88;100.00
19553;BME280;9420;50.876;7.012;2022-09-29T08:33:40;99785.22;;;18.73;100.00
19553;BME280;9420;50.876;7.012;2022-09-29T08:36:07;99783.81;;;19.36;100.00
19553;BME280;9420;50.876;7.012;2022-09-29T08:38:40;99785.13;;;18.97;100.00
19553;BME280;9420;50.876;7.012;2022-09-29T08:41:29;99787.69;;;18.98;100.00
19553;BME280;9420;50.876;7.012;2022-09-29T08:44:04;99784.50;;;18.93;100.00
19553;BME280;9420;50.876;7.012;2022-09-29T08:46:37;99787.44;;;19.01;100.00
19553;BME280;9420;50.876;7.012;2022-09-29T08:49:16;99794.94;;;18.74;100.00
19553;BME280;9420;50.876;7.012;2022-09-29T08:51:50;99785.25;;;19.29;100.00
19553;BME280;9420;50.876;7.012;2022-09-29T08:54:26;99789.00;;;19.15;100.00
19553;BME280;9420;50.876;7.012;2022-09-29T08:56:56;99795.91;;;19.62;99.91
19553;BME280;9420;50.876;7.012;2022-09-29T08:59:24;99802.72;;;18.99;98.22
19553;BME280;9420;50.876;7.012;2022-09-29T09:02:37;99793.50;;;19.03;100.00
19553;BME280;9420;50.876;7.012;2022-09-29T09:05:29;99791.81;;;19.14;99.88
19553;BME280;9420;50.876;7.012;2022-09-29T09:08:09;99800.50;;;18.93;100.00
19553;BME280;9420;50.876;7.012;2022-09-29T09:10:44;99796.88;;;19.61;100.00
19553;BME280;9420;50.876;7.012;2022-09-29T09:13:32;99790.09;;;19.57;100.00
19553;BME280;9420;50.876;7.012;2022-09-29T09:16:21;99795.31;;;19.03;100.00
19553;BME280;9420;50.876;7.012;2022-09-29T09:19:23;99797.25;;;19.23;100.00
19553;BME280;9420;50.876;7.012;2022-09-29T09:22:04;99796.44;;;19.45;100.00
19553;BME280;9420;50.876;7.012;2022-09-29T09:24:47;99793.03;;;20.28;98.35
19553;BME280;9420;50.876;7.012;2022-09-29T09:27:20;99795.41;;;20.11;99.51
19553;BME280;9420;50.876;7.012;2022-09-29T09:30:01;99803.94;;;19.40;98.42
19553;BME280;9420;50.876;7.012;2022-09-29T09:32:35;99806.59;;;19.51;100.00
19553;BME280;9420;50.876;7.012;2022-09-29T09:35:24;99795.66;;;19.65;100.00
19553;BME280;9420;50.876;7.012;2022-09-29T09:38:00;99809.72;;;19.78;100.00
19553;BME280;9420;50.876;7.012;2022-09-29T09:40:39;99803.84;;;19.95;100.00
19553;BME280;9420;50.876;7.012;2022-09-29T09:43:16;99799.81;;;20.32;99.09
19553;BME280;9420;50.876;7.012;2022-09-29T09:45:50;99808.63;;;19.69;100.00
19553;BME280;9420;50.876;7.012;2022-09-29T09:48:26;99803.53;;;20.20;99.39
19553;BME280;9420;50.876;7.012;2022-09-29T09:51:00;99808.13;;;20.50;98.25
19553;BME280;9420;50.876;7.012;2022-09-29T09:53:36;99797.19;;;20.21;97.38
19553;BME280;9420;50.876;7.012;2022-09-29T09:56:18;99803.53;;;20.09;97.25
19553;BME280;9420;50.876;7.012;2022-09-29T09:59:10;99784.88;;;20.92;95.92
19553;BME280;9420;50.876;7.012;2022-09-29T10:01:41;99797.38;;;21.12;93.94
19553;BME280;9420;50.876;7.012;2022-09-29T10:04:11;99788.81;;;21.18;91.75
19553;BME280;9420;50.876;7.012;2022-09-29T10:06:39;99781.16;;;22.02;88.30
19553;BME280;9420;50.876;7.012;2022-09-29T10:09:12;99785.06;;;21.79;87.01
19553;BME280;9420;50.876;7.012;2022-09-29T10:11:41;99788.50;;;22.20;84.61
19553;BME280;9420;50.876;7.012;2022-09-29T10:14:15;99785.53;;;21.84;86.42
19553;BME280;9420;50.876;7.012;2022-09-29T10:16:50;99793.56;;;21.84;86.62
19553;BME280;9420;50.876;7.012;2022-09-29T10:19:21;99790.41;;;21.79;84.46
19553;BME280;9420;50.876;7.012;2022-09-29T10:21:49;99789.88;;;21.85;82.66
19553;BME280;9420;50.876;7.012;2022-09-29T10:24:23;99788.75;;;22.55;81.43
19553;BME280;9420;50.876;7.012;2022-09-29T10:26:55;99787.53;;;23.05;81.07
19553;BME280;9420;50.876;7.012;2022-09-29T10:29:30;99796.53;;;22.58;79.95
19553;BME280;9420;50.876;7.012;2022-09-29T10:32:04;99789.44;;;23.22;78.29
19553;BME280;9420;50.876;7.012;2022-09-29T10:34:34;99795.91;;;23.29;75.61
19553;BME280;9420;50.876;7.012;2022-09-29T10:37:05;99795.75;;;22.94;71.44
19553;BME280;9420;50.876;7.012;2022-09-29T10:39:46;99796.84;;;23.92;71.80
19553;BME280;9420;50.876;7.012;2022-09-29T10:42:22;99798.72;;;23.92;69.94
19553;BME280;9420;50.876;7.012;2022-09-29T10:44:53;99790.75;;;24.35;66.98
19553;BME280;9420;50.876;7.012;2022-09-29T10:47:22;99797.63;;;24.55;65.36
19553;BME280;9420;50.876;7.012;2022-09-29T10:50:22;99805.00;;;24.88;62.90
19553;BME280;9420;50.876;7.012;2022-09-29T10:52:53;99800.31;;;25.58;59.56
19553;BME280;9420;50.876;7.012;2022-09-29T10:55:25;99795.47;;;26.35;56.32
19553;BME280;9420;50.876;7.012;2022-09-29T10:57:56;99791.22;;;27.60;52.54
19553;BME280;9420;50.876;7.012;2022-09-29T11:00:31;99790.50;;;28.87;49.88
19553;BME280;9420;50.876;7.012;2022-09-29T11:03:06;99781.75;;;29.73;44.54
19553;BME280;9420;50.876;7.012;2022-09-29T11:05:35;99784.22;;;29.24;45.08
19553;BME280;9420;50.876;7.012;2022-09-29T11:08:03;99791.44;;;29.97;44.03
19553;BME280;9420;50.876;7.012;2022-09-29T11:10:45;99789.03;;;31.55;41.52
19553;BME280;9420;50.876;7.012;2022-09-29T11:13:37;99783.34;;;30.60;43.62
19553;BME280;9420;50.876;7.012;2022-09-29T11:16:13;99784.63;;;30.64;39.48
19553;BME280;9420;50.876;7.012;2022-09-29T11:18:43;99784.88;;;31.59;40.29
19553;BME280;9420;50.876;7.012;2022-09-29T11:28:40;99792.94;;;30.35;38.33
19553;BME280;9420;50.876;7.012;2022-09-29T11:31:31;99791.97;;;30.07;39.97
19553;BME280;9420;50.876;7.012;2022-09-29T11:34:23;99793.84;;;28.75;40.75
19553;BME280;9420;50.876;7.012;2022-09-29T11:37:05;99778.31;;;30.00;41.93
19553;BME280;9420;50.876;7.012;2022-09-29T11:39:51;99786.41;;;30.78;38.62
19553;BME280;9420;50.876;7.012;2022-09-29T11:42:52;99785.34;;;31.69;37.13
19553;BME280;9420;50.876;7.012;2022-09-29T11:45:39;99781.16;;;31.73;33.78
19553;BME280;9420;50.876;7.012;2022-09-29T11:48:44;99790.69;;;30.24;35.81
19553;BME280;9420;50.876;7.012;2022-09-29T11:51:29;99787.66;;;30.33;36.79
19553;BME280;9420;50.876;7.012;2022-09-29T11:54:29;99786.97;;;32.10;34.01
19553;BME280;9420;50.876;7.012;2022-09-29T11:57:09;99784.03;;;31.58;34.99
19553;BME280;9420;50.876;7.012;2022-09-29T12:00:04;99780.44;;;32.05;33.96
19553;BME280;9420;50.876;7.012;2022-09-29T12:03:04;99786.53;;;31.25;34.94
19553;BME280;9420;50.876;7.012;2022-09-29T12:05:53;99786.41;;;33.20;33.27
19553;BME280;9420;50.876;7.012;2022-09-29T12:08:41;99774.53;;;34.40;30.90
19553;BME280;9420;50.876;7.012;2022-09-29T12:11:23;99773.19;;;35.48;30.44
19553;BME280;9420;50.876;7.012;2022-09-29T12:14:01;99782.16;;;33.94;31.98
19553;BME280;9420;50.876;7.012;2022-09-29T12:16:35;99779.28;;;33.83;31.33
19553;BME280;9420;50.876;7.012;2022-09-29T12:19:12;99774.91;;;34.19;29.93
19553;BME280;9420;50.876;7.012;2022-09-29T12:21:44;99779.22;;;34.89;30.38
19553;BME280;9420;50.876;7.012;2022-09-29T12:24:18;99777.28;;;34.90;28.53
19553;BME280;9420;50.876;7.012;2022-09-29T12:26:49;99783.91;;;32.85;30.43
19553;BME280;9420;50.876;7.012;2022-09-29T12:29:30;99779.22;;;33.45;28.92
19553;BME280;9420;50.876;7.012;2022-09-29T12:32:06;99776.50;;;33.38;27.80
19553;BME280;9420;50.876;7.012;2022-09-29T12:34:45;99771.38;;;34.12;27.58
19553;BME280;9420;50.876;7.012;2022-09-29T12:37:21;99765.25;;;35.58;28.21
19553;BME280;9420;50.876;7.012;2022-09-29T12:40:00;99765.66;;;34.52;25.64
19553;BME280;9420;50.876;7.012;2022-09-29T12:42:47;99774.47;;;31.82;28.79
19553;BME280;9420;50.876;7.012;2022-09-29T12:45:25;99767.31;;;31.68;30.98
19553;BME280;9420;50.876;7.012;2022-09-29T12:48:06;99767.94;;;33.79;25.71
19553;BME280;9420;50.876;7.012;2022-09-29T12:50:48;99769.00;;;35.03;26.68
19553;BME280;9420;50.876;7.012;2022-09-29T12:53:21;99767.22;;;35.69;25.05
19553;BME280;9420;50.876;7.012;2022-09-29T12:55:56;99757.31;;;35.68;24.63
19553;BME280;9420;50.876;7.012;2022-09-29T12:58:34;99761.16;;;36.27;23.17
19553;BME280;9420;50.876;7.012;2022-09-29T13:01:26;99758.44;;;37.03;21.62
19553;BME280;9420;50.876;7.012;2022-09-29T13:04:33;99754.59;;;36.81;22.51
19553;BME280;9420;50.876;7.012;2022-09-29T13:14:22;99754.59;;;35.68;24.81
19553;BME280;9420;50.876;7.012;2022-09-29T13:17:08;99758.16;;;35.69;23.50
19553;BME280;9420;50.876;7.012;2022-09-29T13:20:00;99760.22;;;35.37;23.66
19553;BME280;9420;50.876;7.012;2022-09-29T13:23:18;99765.88;;;36.08;23.91
19553;BME280;9420;50.876;7.012;2022-09-29T13:34:24;99781.22;;;29.48;31.55
19553;BME280;9420;50.876;7.012;2022-09-29T13:36:53;99792.06;;;28.22;35.07
19553;BME280;9420;50.876;7.012;2022-09-29T13:39:23;99791.00;;;27.15;34.42
19553;BME280;9420;50.876;7.012;2022-09-29T13:41:53;99792.78;;;26.67;36.26
19553;BME280;9420;50.876;7.012;2022-09-29T13:44:24;99793.94;;;26.09;36.61
19553;BME280;9420;50.876;7.012;2022-09-29T13:46:53;99792.34;;;27.35;31.88
19553;BME280;9420;50.876;7.012;2022-09-29T13:49:29;99795.75;;;25.50;35.15
19553;BME280;9420;50.876;7.012;2022-09-29T13:51:59;99806.25;;;24.76;35.82
19553;BME280;9420;50.876;7.012;2022-09-29T13:54:37;99807.38;;;24.91;36.35
19553;BME280;9420;50.876;7.012;2022-09-29T13:57:27;99805.31;;;24.85;37.28
19553;BME280;9420;50.876;7.012;2022-09-29T14:00:24;99800.63;;;25.47;36.12
19553;BME280;9420;50.876;7.012;2022-09-29T14:03:24;99798.19;;;25.69;36.72